createdAt,value
2019-03-23T00:01:43.348Z,12.54
2019-03-23T00:04:13.698Z,12.50
2019-03-23T00:06:44.075Z,12.43
2019-03-23T00:09:14.501Z,12.35
2019-03-23T00:11:44.822Z,12.29
2019-03-23T00:14:15.187Z,12.26
2019-03-23T00:16:45.608Z,12.31
2019-03-23T00:19:15.972Z,12.14
2019-03-23T00:21:46.351Z,12.16
2019-03-23T00:24:16.723Z,12.07
2019-03-23T00:26:47.095Z,11.99
2019-03-23T00:29:17.457Z,12.07
2019-03-23T00:31:47.840Z,12.08
2019-03-23T00:34:18.281Z,12.10
2019-03-23T00:36:48.656Z,12.11
2019-03-23T00:39:19.055Z,11.97
2019-03-23T00:41:49.422Z,11.83
2019-03-23T00:44:19.799Z,11.76
2019-03-23T00:46:50.975Z,11.65
2019-03-23T00:49:21.402Z,11.65
2019-03-23T00:51:51.776Z,11.58
2019-03-23T00:54:22.159Z,11.57
2019-03-23T00:56:52.518Z,11.23
2019-03-23T00:59:22.885Z,11.27
2019-03-23T01:01:53.248Z,11.37
2019-03-23T01:04:23.629Z,11.47
2019-03-23T01:06:53.995Z,11.53
2019-03-23T01:09:24.380Z,11.47
2019-03-23T01:11:54.746Z,11.50
2019-03-23T01:14:25.149Z,11.41
2019-03-23T01:16:55.531Z,11.43
2019-03-23T01:19:25.905Z,11.41
2019-03-23T01:21:56.293Z,11.42
2019-03-23T01:24:26.662Z,11.44
2019-03-23T01:26:57.065Z,11.43
2019-03-23T01:29:27.437Z,11.35
2019-03-23T01:31:57.830Z,11.21
2019-03-23T01:34:28.193Z,11.11
2019-03-23T01:37:02.663Z,11.06
2019-03-23T01:39:30.612Z,11.14
2019-03-23T01:42:00.980Z,11.09
2019-03-23T01:44:31.345Z,10.80
2019-03-23T01:47:01.707Z,10.54
2019-03-23T01:49:32.060Z,10.52
2019-03-23T01:52:02.429Z,10.44
2019-03-23T01:54:32.798Z,10.74
2019-03-23T01:57:03.162Z,10.90
2019-03-23T01:59:33.532Z,10.94
2019-03-23T02:02:03.938Z,10.98
2019-03-23T02:04:34.314Z,11.01
2019-03-23T02:07:13.462Z,10.99
2019-03-23T02:09:37.159Z,11.04
2019-03-23T02:12:07.523Z,11.02
2019-03-23T02:14:37.906Z,10.95
2019-03-23T02:17:08.284Z,10.95
2019-03-23T02:19:38.655Z,10.91
2019-03-23T02:22:09.035Z,10.85
2019-03-23T02:24:39.511Z,10.85
2019-03-23T02:27:09.891Z,10.77
2019-03-23T02:29:40.256Z,10.80
2019-03-23T02:32:10.627Z,10.77
2019-03-23T02:34:40.996Z,10.73
2019-03-23T02:37:11.343Z,10.63
2019-03-23T02:39:41.717Z,10.75
2019-03-23T02:42:12.100Z,10.75
2019-03-23T02:44:42.537Z,10.71
2019-03-23T02:47:12.901Z,10.72
2019-03-23T02:49:43.271Z,10.75
2019-03-23T02:52:13.644Z,10.75
2019-03-23T02:54:43.996Z,10.75
2019-03-23T02:57:14.366Z,10.73
2019-03-23T02:59:44.741Z,10.76
2019-03-23T03:02:15.143Z,10.64
2019-03-23T03:04:45.510Z,10.67
2019-03-23T03:07:15.884Z,10.59
2019-03-23T03:09:46.259Z,10.37
2019-03-23T03:12:16.614Z,10.39
2019-03-23T03:14:48.009Z,10.44
2019-03-23T03:17:18.344Z,10.61
2019-03-23T03:19:48.701Z,10.57
2019-03-23T03:22:19.078Z,10.59
2019-03-23T03:24:49.456Z,10.71
2019-03-23T03:27:19.836Z,10.72
2019-03-23T03:29:50.238Z,10.78
2019-03-23T03:32:20.639Z,10.77
2019-03-23T03:34:51.028Z,10.78
2019-03-23T03:37:21.377Z,10.79
2019-03-23T03:39:51.749Z,10.83
2019-03-23T03:42:22.117Z,10.79
2019-03-23T03:44:52.524Z,10.76
2019-03-23T03:47:22.960Z,10.79
2019-03-23T03:49:53.325Z,10.79
2019-03-23T03:52:23.729Z,10.71
2019-03-23T03:54:54.104Z,10.57
2019-03-23T03:57:24.444Z,10.59
2019-03-23T03:59:54.793Z,10.41
2019-03-23T04:02:25.194Z,10.56
2019-03-23T04:04:55.546Z,10.52
2019-03-23T04:07:25.929Z,10.37
2019-03-23T04:09:56.294Z,10.41
2019-03-23T04:12:26.676Z,10.49
2019-03-23T04:14:57.051Z,10.54
2019-03-23T04:17:28.083Z,10.56
2019-03-23T04:19:58.462Z,10.62
2019-03-23T04:22:28.844Z,10.65
2019-03-23T04:24:59.198Z,10.62
2019-03-23T04:27:29.569Z,10.65
2019-03-23T04:29:59.939Z,10.66
2019-03-23T04:32:30.355Z,10.65
2019-03-23T04:35:00.713Z,10.63
2019-03-23T04:37:31.145Z,10.66
2019-03-23T04:40:01.525Z,10.61
2019-03-23T04:42:31.947Z,10.44
2019-03-23T04:45:02.334Z,10.17
2019-03-23T04:47:32.688Z,10.08
2019-03-23T04:50:03.425Z,10.07
2019-03-23T04:52:33.808Z,10.04
2019-03-23T04:55:07.753Z,10.23
2019-03-23T04:57:38.574Z,10.30
2019-03-23T05:00:12.071Z,10.31
2019-03-23T05:02:42.490Z,10.43
2019-03-23T05:05:13.024Z,10.41
2019-03-23T05:07:45.271Z,10.53
2019-03-23T05:10:15.934Z,10.52
2019-03-23T05:12:46.307Z,10.69
2019-03-23T05:15:16.904Z,10.72
2019-03-23T05:17:47.277Z,10.75
2019-03-23T05:20:26.140Z,10.74
2019-03-23T05:22:56.505Z,10.80
2019-03-23T05:25:28.314Z,10.75
2019-03-23T05:27:58.969Z,10.94
2019-03-23T05:30:29.418Z,10.96
2019-03-23T05:33:01.759Z,10.71
2019-03-23T05:35:32.183Z,10.78
2019-03-23T05:38:02.521Z,10.70
2019-03-23T05:40:32.905Z,10.53
2019-03-23T05:43:03.274Z,10.64
2019-03-23T05:45:33.655Z,10.86
2019-03-23T05:48:04.115Z,11.07
2019-03-23T05:50:34.606Z,11.07
2019-03-23T05:53:05.307Z,11.11
2019-03-23T05:55:35.673Z,11.06
2019-03-23T05:58:06.074Z,11.09
2019-03-23T06:00:36.477Z,11.29
2019-03-23T06:03:06.843Z,11.51
2019-03-23T06:05:37.200Z,11.62
2019-03-23T06:08:07.553Z,11.43
2019-03-23T06:10:37.924Z,11.61
2019-03-23T06:13:08.502Z,11.67
2019-03-23T06:15:38.902Z,11.77
2019-03-23T06:18:09.251Z,11.75
2019-03-23T06:20:39.626Z,11.73
2019-03-23T06:23:09.999Z,11.84
2019-03-23T06:25:40.393Z,11.82
2019-03-23T06:28:12.201Z,11.87
2019-03-23T06:30:42.573Z,12.08
2019-03-23T06:33:12.947Z,14.14
2019-03-23T06:35:43.329Z,14.47
2019-03-23T06:38:13.714Z,15.05
2019-03-23T06:40:44.107Z,14.48
2019-03-23T06:43:14.489Z,15.18
2019-03-23T06:45:44.867Z,16.21
2019-03-23T06:48:15.269Z,17.02
2019-03-23T06:50:45.626Z,17.70
2019-03-23T06:53:15.992Z,18.19
2019-03-23T06:55:46.369Z,18.43
2019-03-23T06:58:16.750Z,18.63
2019-03-23T07:00:47.130Z,18.01
2019-03-23T07:03:17.544Z,18.43
2019-03-23T07:05:47.754Z,18.32
2019-03-23T07:08:18.133Z,19.09
2019-03-23T07:10:48.608Z,19.73
2019-03-23T07:13:18.992Z,19.99
2019-03-23T07:15:49.340Z,20.02
2019-03-23T07:18:19.714Z,20.50
2019-03-23T07:20:50.064Z,20.11
2019-03-23T07:23:20.444Z,20.01
2019-03-23T07:25:50.813Z,19.86
2019-03-23T07:28:21.181Z,19.70
2019-03-23T07:30:51.562Z,19.63
2019-03-23T07:33:21.949Z,19.96
2019-03-23T07:35:52.318Z,20.93
2019-03-23T07:38:22.939Z,21.12
2019-03-23T07:40:53.291Z,21.93
2019-03-23T07:43:23.658Z,22.41
2019-03-23T07:45:54.093Z,22.62
2019-03-23T07:48:24.470Z,22.59
2019-03-23T07:50:54.868Z,22.91
2019-03-23T07:53:25.247Z,22.96
2019-03-23T07:55:56.240Z,22.66
2019-03-23T07:58:26.638Z,22.57
2019-03-23T08:00:57.030Z,22.54
2019-03-23T08:03:27.426Z,22.79
2019-03-23T08:05:58.331Z,22.79
2019-03-23T08:08:28.681Z,22.73
2019-03-23T08:10:59.037Z,22.76
2019-03-23T08:13:29.466Z,22.58
2019-03-23T08:15:59.969Z,22.48
2019-03-23T08:18:30.341Z,22.13
2019-03-23T08:21:00.727Z,21.91
2019-03-23T08:23:31.098Z,22.12
2019-03-23T08:26:01.464Z,22.51
2019-03-23T08:28:32.539Z,22.29
2019-03-23T08:31:02.859Z,22.35
2019-03-23T08:33:33.243Z,22.49
2019-03-23T08:36:03.648Z,22.08
2019-03-23T08:38:36.309Z,22.30
2019-03-23T08:41:06.684Z,22.16
2019-03-23T08:43:37.129Z,22.36
2019-03-23T08:46:07.493Z,22.32
2019-03-23T08:48:37.928Z,22.01
2019-03-23T08:51:08.292Z,22.01
2019-03-23T08:53:38.655Z,22.14
2019-03-23T08:56:09.023Z,22.23
2019-03-23T08:58:38.452Z,22.25
2019-03-23T09:01:08.833Z,22.29
2019-03-23T09:03:39.217Z,22.13
2019-03-23T09:06:09.593Z,22.34
2019-03-23T09:08:40.117Z,22.31
2019-03-23T09:11:20.250Z,22.44
2019-03-23T09:13:42.604Z,22.66
2019-03-23T09:16:13.008Z,22.43
2019-03-23T09:18:43.409Z,22.65
2019-03-23T09:21:13.789Z,22.90
2019-03-23T09:23:44.222Z,22.98
2019-03-23T09:26:14.768Z,22.98
2019-03-23T09:28:45.199Z,22.93
2019-03-23T09:31:15.589Z,23.06
2019-03-23T09:33:45.968Z,22.94
2019-03-23T09:36:16.347Z,22.59
2019-03-23T09:38:46.708Z,22.51
2019-03-23T09:41:17.072Z,22.28
2019-03-23T09:43:48.805Z,22.49
2019-03-23T09:46:19.172Z,22.86
2019-03-23T09:48:49.541Z,22.72
2019-03-23T09:51:19.918Z,22.72
2019-03-23T09:53:50.292Z,22.77
2019-03-23T09:56:20.650Z,22.93
2019-03-23T09:58:52.080Z,22.42
2019-03-23T10:01:22.447Z,22.83
2019-03-23T10:03:52.802Z,22.97
2019-03-23T10:06:23.168Z,22.90
2019-03-23T10:08:53.538Z,22.90
2019-03-23T10:11:24.880Z,23.22
2019-03-23T10:13:55.271Z,23.29
2019-03-23T10:16:25.668Z,23.09
2019-03-23T10:18:56.017Z,23.29
2019-03-23T10:21:26.376Z,22.99
2019-03-23T10:23:56.744Z,22.87
2019-03-23T10:26:28.976Z,22.96
2019-03-23T10:28:59.367Z,22.93
2019-03-23T10:31:29.735Z,23.06
2019-03-23T10:34:00.115Z,23.05
2019-03-23T10:36:30.623Z,23.10
2019-03-23T10:39:01.016Z,22.69
2019-03-23T10:41:32.469Z,22.35
2019-03-23T10:44:03.011Z,22.18
2019-03-23T10:46:33.680Z,21.78
2019-03-23T10:49:04.349Z,21.11
2019-03-23T10:51:34.708Z,20.90
2019-03-23T10:54:05.078Z,20.66
2019-03-23T10:56:35.466Z,20.51
2019-03-23T10:59:05.841Z,20.54
2019-03-23T11:01:36.231Z,20.59
2019-03-23T11:04:06.609Z,20.48
2019-03-23T11:06:37.024Z,20.59
2019-03-23T11:09:07.421Z,20.43
2019-03-23T11:11:37.867Z,20.44
2019-03-23T11:14:08.238Z,20.56
2019-03-23T11:16:38.686Z,20.56
2019-03-23T11:19:13.420Z,20.60
2019-03-23T11:21:41.108Z,20.56
2019-03-23T11:24:11.454Z,20.45
2019-03-23T11:26:41.831Z,20.30
2019-03-23T11:29:12.205Z,20.44
2019-03-23T11:31:42.607Z,20.57
2019-03-23T11:34:17.743Z,20.57
2019-03-23T11:36:45.684Z,20.52
2019-03-23T11:39:16.055Z,20.50
2019-03-23T11:41:46.529Z,20.40
2019-03-23T11:44:16.961Z,20.50
2019-03-23T11:46:48.746Z,20.58
2019-03-23T11:49:19.116Z,20.62
2019-03-23T11:51:49.610Z,20.78
2019-03-23T11:54:20.031Z,20.83
2019-03-23T11:56:50.711Z,20.73
2019-03-23T11:59:22.222Z,20.82
2019-03-23T12:01:52.620Z,20.93
2019-03-23T12:04:24.932Z,20.89
2019-03-23T12:06:55.357Z,20.70
2019-03-23T12:09:25.728Z,20.82
2019-03-23T12:11:56.191Z,20.92
2019-03-23T12:14:26.592Z,20.89
2019-03-23T12:16:57.296Z,20.69
2019-03-23T12:19:27.752Z,20.71
2019-03-23T12:21:58.123Z,20.80
2019-03-23T12:24:31.027Z,20.92
2019-03-23T12:27:01.680Z,20.93
2019-03-23T12:29:32.027Z,21.01
2019-03-23T12:32:02.401Z,21.02
2019-03-23T12:34:32.758Z,21.15
2019-03-23T12:37:03.112Z,21.14
2019-03-23T12:39:33.469Z,21.21
2019-03-23T12:42:03.838Z,21.29
2019-03-23T12:44:34.206Z,21.18
2019-03-23T12:47:04.583Z,21.21
2019-03-23T12:49:34.987Z,21.12
2019-03-23T12:52:05.446Z,21.08
2019-03-23T12:54:35.921Z,21.06
2019-03-23T12:57:06.436Z,20.99
2019-03-23T12:59:36.815Z,21.18
2019-03-23T13:02:07.304Z,21.16
2019-03-23T13:04:37.750Z,21.29
2019-03-23T13:07:08.203Z,21.27
2019-03-23T13:09:38.533Z,21.33
2019-03-23T13:12:08.918Z,21.31
2019-03-23T13:14:40.235Z,21.34
2019-03-23T13:17:10.629Z,21.34
2019-03-23T13:19:41.992Z,21.50
2019-03-23T13:22:12.369Z,21.56
2019-03-23T13:24:42.756Z,21.34
2019-03-23T13:27:13.146Z,21.18
2019-03-23T13:29:43.515Z,21.25
2019-03-23T13:32:13.945Z,21.31
2019-03-23T13:34:44.351Z,21.09
2019-03-23T13:37:16.180Z,21.08
2019-03-23T13:39:46.618Z,21.05
2019-03-23T13:42:17.011Z,21.13
2019-03-23T13:44:47.365Z,21.15
2019-03-23T13:47:17.745Z,21.14
2019-03-23T13:49:48.445Z,21.23
2019-03-23T13:52:19.862Z,21.31
2019-03-23T13:54:50.284Z,21.25
2019-03-23T13:57:20.633Z,21.23
2019-03-23T13:59:51.972Z,21.22
2019-03-23T14:02:22.441Z,21.24
2019-03-23T14:04:53.025Z,21.10
2019-03-23T14:07:23.408Z,21.10
2019-03-23T14:09:53.793Z,21.12
2019-03-23T14:12:24.502Z,21.22
2019-03-23T14:14:55.255Z,21.24
2019-03-23T14:17:25.872Z,21.08
2019-03-23T14:19:56.293Z,21.09
2019-03-23T14:22:26.704Z,21.06
2019-03-23T14:24:57.081Z,21.00
2019-03-23T14:27:27.472Z,20.91
2019-03-23T14:29:57.848Z,20.81
2019-03-23T14:32:28.215Z,20.77
2019-03-23T14:34:58.589Z,20.74
2019-03-23T14:37:28.953Z,20.79
2019-03-23T14:39:59.336Z,20.82
2019-03-23T14:42:29.993Z,20.86
2019-03-23T14:45:00.551Z,20.75
2019-03-23T14:47:31.001Z,20.69
2019-03-23T14:50:01.368Z,20.62
2019-03-23T14:52:31.757Z,20.52
2019-03-23T14:55:02.132Z,20.48
2019-03-23T14:57:32.502Z,20.43
2019-03-23T15:00:03.380Z,20.46
2019-03-23T15:02:34.435Z,20.50
2019-03-23T15:05:06.858Z,20.52
2019-03-23T15:07:39.021Z,20.46
2019-03-23T15:10:09.833Z,20.35
2019-03-23T15:12:40.239Z,20.25
2019-03-23T15:15:10.601Z,20.16
2019-03-23T15:17:48.428Z,20.00
2019-03-23T15:20:13.311Z,19.99
2019-03-23T15:22:43.665Z,19.91
2019-03-23T15:25:14.401Z,19.89
2019-03-23T15:27:44.781Z,19.83
2019-03-23T15:30:15.236Z,19.85
2019-03-23T15:32:45.670Z,19.86
2019-03-23T15:35:16.311Z,19.89
2019-03-23T15:37:47.468Z,19.86
2019-03-23T15:40:17.862Z,19.86
2019-03-23T15:42:48.258Z,19.82
2019-03-23T15:45:19.257Z,19.81
2019-03-23T15:47:49.639Z,19.78
2019-03-23T15:50:20.043Z,19.75
2019-03-23T15:52:52.297Z,19.72
2019-03-23T15:55:22.910Z,19.68
2019-03-23T15:57:53.230Z,19.56
2019-03-23T16:00:23.602Z,19.41
2019-03-23T16:02:54.585Z,19.32
2019-03-23T16:05:25.303Z,19.21
2019-03-23T16:07:55.756Z,19.15
2019-03-23T16:10:26.544Z,19.11
2019-03-23T16:12:57.018Z,19.08
2019-03-23T16:15:27.609Z,18.95
2019-03-23T16:17:57.976Z,18.84
2019-03-23T16:20:28.501Z,18.55
2019-03-23T16:22:59.132Z,18.41
2019-03-23T16:25:30.120Z,18.33
2019-03-23T16:28:00.857Z,18.13
2019-03-23T16:30:32.182Z,18.00
2019-03-23T16:33:02.539Z,18.04
2019-03-23T16:35:32.910Z,17.97
2019-03-23T16:38:03.289Z,17.76
2019-03-23T16:40:33.835Z,17.66
2019-03-23T16:43:06.265Z,17.52
2019-03-23T16:45:36.250Z,17.30
2019-03-23T16:48:06.647Z,17.23
2019-03-23T16:50:37.036Z,17.10
2019-03-23T16:53:07.555Z,17.29
2019-03-23T16:55:38.236Z,16.81
2019-03-23T16:58:15.934Z,16.76
2019-03-23T17:00:41.182Z,16.61
2019-03-23T17:03:12.611Z,16.54
2019-03-23T17:05:43.470Z,16.24
2019-03-23T17:08:14.150Z,16.33
2019-03-23T17:10:44.935Z,16.14
2019-03-23T17:13:15.893Z,16.11
2019-03-23T17:15:46.387Z,16.06
2019-03-23T17:18:16.825Z,16.11
2019-03-23T17:20:48.294Z,16.03
2019-03-23T17:23:18.666Z,15.78
2019-03-23T17:25:49.021Z,15.82
2019-03-23T17:28:20.521Z,15.41
2019-03-23T17:30:52.106Z,15.15
2019-03-23T17:33:22.469Z,15.25
2019-03-23T17:35:52.879Z,15.03
2019-03-23T17:38:23.227Z,14.85
2019-03-23T17:40:55.024Z,14.92
2019-03-23T17:43:25.412Z,14.51
2019-03-23T17:45:55.858Z,14.40
2019-03-23T17:48:26.249Z,14.12
2019-03-23T17:50:56.606Z,14.14
2019-03-23T17:53:26.989Z,13.59
2019-03-23T17:55:57.488Z,13.38
2019-03-23T17:58:29.424Z,13.32
2019-03-23T18:00:59.778Z,13.06
2019-03-23T18:03:30.167Z,13.06
2019-03-23T18:06:00.544Z,12.91
2019-03-23T18:08:30.917Z,12.95
2019-03-23T18:11:01.291Z,13.02
2019-03-23T18:13:32.781Z,12.88
2019-03-23T18:16:03.153Z,12.83
2019-03-23T18:18:33.527Z,12.60
2019-03-23T18:21:03.908Z,12.53
2019-03-23T18:23:34.281Z,12.43
2019-03-23T18:26:04.655Z,12.68
2019-03-23T18:28:35.026Z,12.35
2019-03-23T18:31:05.395Z,12.31
2019-03-23T18:33:35.768Z,12.45
2019-03-23T18:36:06.142Z,12.01
2019-03-23T18:38:36.874Z,12.19
2019-03-23T18:41:07.332Z,12.32
2019-03-23T18:43:38.486Z,12.30
2019-03-23T18:46:08.834Z,12.47
2019-03-23T18:48:39.212Z,12.58
2019-03-23T18:51:09.582Z,12.61
2019-03-23T18:53:39.942Z,12.31
2019-03-23T18:56:10.343Z,12.66
2019-03-23T18:58:40.746Z,12.44
2019-03-23T19:01:12.460Z,12.64
2019-03-23T19:03:42.845Z,12.84
2019-03-23T19:06:15.967Z,12.83
2019-03-23T19:08:46.427Z,12.96
2019-03-23T19:11:16.887Z,12.89
2019-03-23T19:13:48.596Z,12.69
2019-03-23T19:16:19.463Z,12.17
2019-03-23T19:18:49.846Z,12.54
2019-03-23T19:21:20.245Z,12.37
2019-03-23T19:23:50.678Z,12.62
2019-03-23T19:26:23.842Z,12.68
2019-03-23T19:28:54.265Z,12.91
2019-03-23T19:31:28.080Z,12.91
2019-03-23T19:33:58.699Z,12.70
2019-03-23T19:36:29.302Z,12.63
2019-03-23T19:39:00.226Z,12.60
2019-03-23T19:41:30.638Z,12.86
2019-03-23T19:44:01.032Z,12.88
2019-03-23T19:46:31.432Z,12.69
2019-03-23T19:49:01.801Z,12.79
2019-03-23T19:51:32.246Z,13.05
2019-03-23T19:54:02.655Z,12.87
2019-03-23T19:56:33.032Z,12.71
2019-03-23T19:59:03.494Z,12.41
2019-03-23T20:01:34.581Z,12.55
2019-03-23T20:04:06.454Z,12.73
2019-03-23T20:06:36.769Z,12.72
2019-03-23T20:09:08.513Z,12.92
2019-03-23T20:11:38.898Z,12.60
2019-03-23T20:14:09.276Z,12.86
2019-03-23T20:16:40.390Z,12.80
2019-03-23T20:19:11.649Z,12.68
2019-03-23T20:21:42.026Z,12.91
2019-03-23T20:24:12.440Z,12.67
2019-03-23T20:26:42.840Z,12.72
2019-03-23T20:29:13.243Z,12.27
2019-03-23T20:31:45.718Z,12.32
2019-03-23T20:34:16.099Z,12.15
2019-03-23T20:36:46.580Z,12.30
2019-03-23T20:39:16.963Z,12.28
2019-03-23T20:41:48.090Z,11.87
2019-03-23T20:44:18.967Z,11.83
2019-03-23T20:46:49.491Z,11.63
2019-03-23T20:49:20.364Z,11.84
2019-03-23T20:51:52.273Z,11.80
2019-03-23T20:54:24.309Z,11.86
2019-03-23T20:56:54.687Z,11.85
2019-03-23T20:59:25.165Z,11.69
2019-03-23T21:01:55.652Z,11.88
2019-03-23T21:04:26.021Z,12.06
2019-03-23T21:06:57.493Z,12.11
2019-03-23T21:09:28.199Z,11.75
2019-03-23T21:11:59.251Z,11.76
2019-03-23T21:14:29.677Z,11.46
2019-03-23T21:17:00.073Z,11.27
2019-03-23T21:19:30.983Z,11.12
2019-03-23T21:22:01.818Z,11.07
2019-03-23T21:24:33.121Z,11.13
2019-03-23T21:27:03.498Z,11.07
2019-03-23T21:29:33.877Z,11.34
2019-03-23T21:32:04.272Z,11.21
2019-03-23T21:34:34.639Z,11.36
2019-03-23T21:37:05.056Z,11.39
2019-03-23T21:39:35.453Z,11.02
2019-03-23T21:42:05.831Z,11.22
2019-03-23T21:44:36.262Z,11.19
2019-03-23T21:47:06.671Z,11.17
2019-03-23T21:49:37.431Z,11.06
2019-03-23T21:52:08.491Z,11.16
2019-03-23T21:54:38.888Z,11.42
2019-03-23T21:57:09.293Z,11.21
2019-03-23T21:59:39.694Z,11.07
2019-03-23T22:02:10.087Z,10.98
2019-03-23T22:04:42.854Z,11.14
2019-03-23T22:07:14.221Z,11.22
2019-03-23T22:09:44.654Z,10.92
2019-03-23T22:12:15.102Z,10.82
2019-03-23T22:14:45.863Z,10.80
2019-03-23T22:17:16.252Z,10.72
2019-03-23T22:19:46.624Z,10.72
2019-03-23T22:22:17.014Z,10.84
2019-03-23T22:24:47.409Z,10.65
2019-03-23T22:27:19.188Z,10.79
2019-03-23T22:29:49.742Z,10.43
2019-03-23T22:32:21.724Z,10.77
2019-03-23T22:34:52.117Z,10.68
2019-03-23T22:37:22.490Z,10.71
2019-03-23T22:39:53.594Z,10.62
2019-03-23T22:42:24.041Z,10.73
2019-03-23T22:44:54.430Z,10.83
2019-03-23T22:47:27.311Z,11.26
2019-03-23T22:49:58.685Z,11.44
2019-03-23T22:52:29.090Z,11.43
2019-03-23T22:54:59.475Z,11.34
2019-03-23T22:57:29.842Z,11.24
2019-03-23T23:00:00.578Z,11.31
2019-03-23T23:02:31.155Z,11.24
2019-03-23T23:05:01.544Z,11.06
2019-03-23T23:07:32.005Z,11.25
2019-03-23T23:10:02.316Z,11.21
2019-03-23T23:12:32.773Z,11.00
2019-03-23T23:15:04.723Z,11.21
2019-03-23T23:17:35.504Z,11.22
2019-03-23T23:20:07.237Z,10.88
2019-03-23T23:22:39.649Z,10.87
2019-03-23T23:25:10.421Z,11.10
2019-03-23T23:27:40.897Z,10.37
2019-03-23T23:30:11.669Z,10.70
2019-03-23T23:32:42.057Z,10.64
2019-03-23T23:35:12.407Z,10.52
2019-03-23T23:37:42.783Z,10.54
2019-03-23T23:40:13.133Z,10.43
2019-03-23T23:42:44.637Z,10.62
2019-03-23T23:45:16.116Z,10.72
2019-03-23T23:47:46.511Z,10.42
2019-03-23T23:50:16.911Z,10.87
2019-03-23T23:52:48.363Z,11.03
2019-03-23T23:55:18.878Z,10.93
2019-03-23T23:57:49.294Z,10.60
